Time;durP1;ratioP1;P1;durP2;ratioP2;P2;SDS_P1;SDS_P2;PMS_P1;PMS_P2;Temp;Humidity;BMP_temperature;BMP_pressure;BME280_temperature;BME280_humidity;BME280_pressure;Samples;Min_cycle;Max_cycle;Signal;HPM_P1;HPM_P2
2022/10/04 00:00:11;;;;;;;11.20;6.00;;;11.60;99.90;;;;;;5038546;28;20431;-79
2022/10/04 00:02:47;;;;;;;6.17;5.03;;;11.60;99.90;;;;;;5037310;28;20443;-78
2022/10/04 00:05:18;;;;;;;7.60;4.93;;;11.60;99.90;;;;;;5037677;28;21094;-78
2022/10/04 00:07:50;;;;;;;9.57;5.67;;;11.60;99.90;;;;;;5038502;28;20411;-77
2022/10/04 00:10:20;;;;;;;7.13;5.47;;;11.60;99.90;;;;;;5038822;28;20856;-78
2022/10/04 00:12:50;;;;;;;8.03;5.43;;;11.60;99.90;;;;;;5038979;28;20427;-79
2022/10/04 00:15:23;;;;;;;8.83;5.77;;;11.60;99.90;;;;;;5038398;28;20467;-78
2022/10/04 00:18:17;;;;;;;10.97;6.07;;;11.60;99.90;;;;;;5037921;28;20446;-78
2022/10/04 00:21:07;;;;;;;7.97;6.13;;;11.60;99.90;;;;;;5039049;28;20434;-78
2022/10/04 00:23:47;;;;;;;6.20;5.60;;;11.60;99.90;;;;;;5034746;28;20471;-79
2022/10/04 00:27:08;;;;;;;8.57;6.13;;;11.60;99.90;;;;;;5037557;28;20526;-79
2022/10/04 00:29:38;;;;;;;6.03;5.40;;;11.60;99.90;;;;;;5037716;28;20857;-79
2022/10/04 00:32:45;;;;;;;9.13;6.40;;;11.60;99.90;;;;;;5037963;28;20916;-78
2022/10/04 00:35:56;;;;;;;8.80;5.97;;;11.70;99.90;;;;;;5026386;28;20477;-78
2022/10/04 00:38:27;;;;;;;8.33;6.00;;;11.60;99.90;;;;;;5003442;28;20462;-78
2022/10/04 00:41:01;;;;;;;10.27;6.60;;;11.60;99.90;;;;;;5037057;28;20487;-78
2022/10/04 00:43:33;;;;;;;8.93;6.30;;;11.60;99.90;;;;;;5037049;28;20517;-78
2022/10/04 00:46:05;;;;;;;9.33;6.80;;;11.60;99.90;;;;;;5039166;28;20439;-78
2022/10/04 00:48:43;;;;;;;12.20;6.50;;;11.70;99.90;;;;;;5038763;28;20443;-79
2022/10/04 00:51:21;;;;;;;6.73;5.73;;;11.70;99.90;;;;;;5037900;28;20438;-78
2022/10/04 00:54:03;;;;;;;9.50;6.47;;;11.70;99.90;;;;;;5038189;28;20513;-78
2022/10/04 00:56:38;;;;;;;9.17;6.13;;;11.70;99.90;;;;;;5037851;28;20459;-77
2022/10/04 00:59:20;;;;;;;5.93;5.33;;;11.70;99.90;;;;;;5036236;28;20473;-79
2022/10/04 01:01:56;;;;;;;7.33;6.20;;;11.70;99.90;;;;;;5036500;28;20971;-78
2022/10/04 01:04:34;;;;;;;7.47;6.23;;;11.70;99.90;;;;;;5036249;28;20466;-79
2022/10/04 01:07:05;;;;;;;9.60;6.00;;;11.70;99.90;;;;;;5038674;28;20903;-78
2022/10/04 01:09:36;;;;;;;8.43;6.17;;;11.70;99.90;;;;;;5037203;28;20443;-78
2022/10/04 01:12:11;;;;;;;10.77;7.27;;;11.70;99.90;;;;;;5038324;28;20551;-79
2022/10/04 01:14:48;;;;;;;11.67;6.40;;;11.70;99.90;;;;;;5041748;28;20562;-78
2022/10/04 01:17:17;;;;;;;8.13;6.40;;;11.70;99.90;;;;;;5041872;28;20427;-78
2022/10/04 01:19:52;;;;;;;8.77;6.40;;;11.70;99.90;;;;;;5040540;28;20978;-78
2022/10/04 01:22:35;;;;;;;9.10;6.70;;;11.70;99.90;;;;;;5038859;28;20447;-78
2022/10/04 01:25:04;;;;;;;8.53;7.00;;;11.70;99.90;;;;;;5035078;28;20490;-78
2022/10/04 01:27:40;;;;;;;9.50;6.23;;;11.70;99.90;;;;;;5036404;28;20439;-78
2022/10/04 01:30:10;;;;;;;8.30;6.50;;;11.70;99.90;;;;;;5036275;28;20458;-78
2022/10/04 01:32:39;;;;;;;10.73;7.10;;;11.70;99.90;;;;;;5034967;28;20534;-77
2022/10/04 01:35:09;;;;;;;10.40;7.10;;;11.70;99.90;;;;;;5036057;28;20509;-78
2022/10/04 01:37:39;;;;;;;9.37;7.10;;;11.70;99.90;;;;;;5036225;28;20439;-78
2022/10/04 01:40:09;;;;;;;8.00;7.30;;;11.70;99.90;;;;;;5034970;28;20457;-78
2022/10/04 01:42:44;;;;;;;8.87;7.03;;;11.70;99.90;;;;;;5036526;28;20443;-78
2022/10/04 01:45:19;;;;;;;10.20;7.47;;;11.70;99.90;;;;;;5035354;28;20466;-78
2022/10/04 01:47:53;;;;;;;7.07;5.87;;;11.70;99.90;;;;;;5039972;28;20529;-78
2022/10/04 01:50:28;;;;;;;8.40;7.50;;;11.80;99.90;;;;;;5037619;28;20447;-77
2022/10/04 01:53:06;;;;;;;8.43;6.90;;;11.70;99.90;;;;;;5037320;28;20423;-78
2022/10/04 01:55:36;;;;;;;7.20;6.50;;;11.80;99.90;;;;;;5036827;28;20525;-78
2022/10/04 01:58:13;;;;;;;9.03;6.90;;;11.70;99.90;;;;;;5036071;28;20883;-78
2022/10/04 02:00:48;;;;;;;8.43;7.53;;;11.80;99.90;;;;;;5035495;28;20438;-77
2022/10/04 02:03:19;;;;;;;9.53;8.63;;;11.70;99.90;;;;;;5035003;28;20449;-77
2022/10/04 02:05:52;;;;;;;10.53;8.50;;;11.70;99.90;;;;;;5035364;28;20449;-78
2022/10/04 02:08:27;;;;;;;10.17;8.60;;;11.70;99.90;;;;;;5034907;28;20970;-78
2022/10/04 02:10:57;;;;;;;9.60;8.60;;;11.70;99.90;;;;;;5039278;28;20461;-78
2022/10/04 02:13:29;;;;;;;9.90;8.20;;;11.70;99.90;;;;;;5038135;28;20493;-78
2022/10/04 02:15:58;;;;;;;10.67;8.67;;;11.70;99.90;;;;;;5036436;28;20486;-78
2022/10/04 02:18:27;;;;;;;9.23;8.33;;;11.70;99.90;;;;;;5036393;28;20439;-78
2022/10/04 02:20:56;;;;;;;8.80;7.80;;;11.70;99.90;;;;;;5034872;28;20450;-78
2022/10/04 02:23:27;;;;;;;10.60;8.10;;;11.70;99.90;;;;;;5034352;28;20490;-78
2022/10/04 02:25:56;;;;;;;10.27;7.70;;;11.70;99.90;;;;;;5034508;28;20438;-78
2022/10/04 02:28:25;;;;;;;10.27;9.10;;;11.70;99.90;;;;;;5034177;28;20509;-78
2022/10/04 02:33:43;;;;;;;9.23;7.87;;;11.70;99.90;;;;;;5034199;28;21049;-78
2022/10/04 02:36:12;;;;;;;12.40;7.83;;;11.70;99.90;;;;;;5034084;28;20463;-78
2022/10/04 02:38:45;;;;;;;9.23;7.90;;;11.70;99.90;;;;;;5034098;28;20458;-78
2022/10/04 02:41:22;;;;;;;10.50;8.60;;;11.70;99.90;;;;;;5035284;28;20439;-78
2022/10/04 02:43:54;;;;;;;10.67;8.50;;;11.70;99.90;;;;;;5035687;28;20466;-78
2022/10/04 02:46:28;;;;;;;9.33;8.30;;;11.70;99.90;;;;;;5034615;28;20440;-78
2022/10/04 02:48:58;;;;;;;10.80;8.13;;;11.70;99.90;;;;;;5035529;28;20423;-78
2022/10/04 02:51:32;;;;;;;8.83;8.03;;;11.70;99.90;;;;;;5034480;28;20443;-78
2022/10/04 02:54:05;;;;;;;9.20;8.30;;;11.70;99.90;;;;;;5035130;28;20455;-78
2022/10/04 02:56:34;;;;;;;9.97;8.60;;;11.70;99.90;;;;;;5035196;28;20462;-78
2022/10/04 02:59:04;;;;;;;8.93;8.13;;;11.70;99.90;;;;;;5034070;28;20455;-77
2022/10/04 03:01:49;;;;;;;11.90;8.53;;;11.60;99.90;;;;;;5035525;28;20863;-78
2022/10/04 03:04:19;;;;;;;10.73;8.67;;;11.60;99.90;;;;;;5033637;28;20478;-77
2022/10/04 03:06:48;;;;;;;13.10;10.50;;;11.60;99.90;;;;;;5034178;28;20420;-77
2022/10/04 03:09:21;;;;;;;8.77;7.87;;;11.60;99.90;;;;;;5032446;28;20462;-76
2022/10/04 03:11:56;;;;;;;10.50;9.50;;;11.60;99.90;;;;;;5033589;28;20762;-79
2022/10/04 03:14:26;;;;;;;10.33;9.30;;;11.60;99.90;;;;;;5033383;28;20454;-77
2022/10/04 03:16:59;;;;;;;10.10;9.10;;;11.60;99.90;;;;;;5032212;28;20521;-79
2022/10/04 03:19:29;;;;;;;10.87;9.77;;;11.60;99.90;;;;;;5036415;28;20943;-78
2022/10/04 03:22:02;;;;;;;11.70;10.50;;;11.60;99.90;;;;;;5040224;28;20849;-77
2022/10/04 03:24:34;;;;;;;10.50;8.60;;;11.60;99.90;;;;;;5037939;28;20513;-78
2022/10/04 03:27:06;;;;;;;12.43;9.37;;;11.60;99.90;;;;;;5037362;28;20741;-78
2022/10/04 03:29:35;;;;;;;12.20;9.80;;;11.60;99.90;;;;;;5038629;28;20438;-78
2022/10/04 03:32:04;;;;;;;11.43;8.90;;;11.60;99.90;;;;;;5037508;28;20944;-78
2022/10/04 03:34:35;;;;;;;10.60;9.60;;;11.60;99.90;;;;;;5037525;28;20478;-78
2022/10/04 03:37:08;;;;;;;14.93;10.63;;;11.60;99.90;;;;;;5037385;28;20995;-76
2022/10/04 03:39:40;;;;;;;11.37;10.37;;;11.60;99.90;;;;;;5035861;28;20435;-77
2022/10/04 03:42:14;;;;;;;11.40;10.10;;;11.60;99.90;;;;;;5038009;28;20799;-77
2022/10/04 03:44:43;;;;;;;10.10;9.10;;;11.50;99.90;;;;;;5035926;28;20462;-78
2022/10/04 03:47:15;;;;;;;11.10;10.00;;;11.60;99.90;;;;;;5036518;28;20447;-77
2022/10/04 03:49:45;;;;;;;10.23;9.30;;;11.50;99.90;;;;;;5036926;28;20444;-77
2022/10/04 03:52:23;;;;;;;11.13;9.90;;;11.50;99.90;;;;;;5037165;28;20849;-78
2022/10/04 03:54:56;;;;;;;12.93;10.43;;;11.50;99.90;;;;;;5035351;28;20536;-77
2022/10/04 03:57:25;;;;;;;11.03;9.53;;;11.50;99.90;;;;;;5035408;28;20462;-76
2022/10/04 03:59:54;;;;;;;12.03;10.80;;;11.50;99.90;;;;;;5037278;28;20801;-77
2022/10/04 04:02:30;;;;;;;11.33;10.17;;;11.50;99.90;;;;;;5035934;28;20463;-77
2022/10/04 04:05:06;;;;;;;11.80;10.70;;;11.50;99.90;;;;;;5036731;28;20478;-78
2022/10/04 04:07:39;;;;;;;13.47;11.93;;;11.40;99.90;;;;;;5038324;28;20407;-78
2022/10/04 04:10:20;;;;;;;12.87;11.57;;;11.50;99.90;;;;;;5036830;28;21004;-79
2022/10/04 04:12:55;;;;;;;15.90;12.40;;;11.40;99.90;;;;;;5037809;28;20443;-78
2022/10/04 04:15:28;;;;;;;15.07;11.40;;;11.40;99.90;;;;;;5035748;28;20937;-77
2022/10/04 04:18:00;;;;;;;12.57;11.33;;;11.40;99.90;;;;;;5039119;28;20490;-78
2022/10/04 04:20:31;;;;;;;12.20;10.83;;;11.40;99.90;;;;;;5037351;28;20441;-78
2022/10/04 04:23:03;;;;;;;12.10;11.00;;;11.40;99.90;;;;;;5038824;28;20500;-78
2022/10/04 04:25:36;;;;;;;14.03;12.60;;;11.40;99.90;;;;;;5038418;28;20469;-78
2022/10/04 04:28:18;;;;;;;12.10;11.00;;;11.40;99.90;;;;;;5038463;28;20435;-78
2022/10/04 04:30:49;;;;;;;13.43;12.13;;;11.40;99.90;;;;;;5036167;28;20454;-78
2022/10/04 04:33:26;;;;;;;14.90;12.87;;;11.40;99.90;;;;;;5038353;28;20443;-78
2022/10/04 04:35:56;;;;;;;13.60;12.33;;;11.40;99.90;;;;;;5036777;28;20454;-78
2022/10/04 04:38:25;;;;;;;14.20;11.93;;;11.40;99.90;;;;;;5037807;28;20530;-79
2022/10/04 04:40:56;;;;;;;13.47;12.07;;;11.40;99.90;;;;;;5036359;28;20447;-78
2022/10/04 04:43:27;;;;;;;13.97;12.67;;;11.40;99.90;;;;;;5036437;28;20856;-78
2022/10/04 04:45:58;;;;;;;12.37;11.30;;;11.30;99.90;;;;;;5036540;28;20558;-78
2022/10/04 04:48:49;;;;;;;13.90;12.60;;;11.30;99.90;;;;;;5038144;28;20828;-78
2022/10/04 04:51:21;;;;;;;12.37;11.13;;;11.30;99.90;;;;;;5040360;28;20442;-78
2022/10/04 04:53:50;;;;;;;12.33;11.10;;;11.30;99.90;;;;;;5036959;28;20886;-79
2022/10/04 04:56:23;;;;;;;17.80;12.43;;;11.30;99.90;;;;;;5053482;28;20450;-78
2022/10/04 04:58:54;;;;;;;15.03;13.60;;;11.30;99.90;;;;;;5038343;28;20454;-78
2022/10/04 05:01:26;;;;;;;15.10;13.57;;;11.30;99.90;;;;;;5038221;28;20427;-78
2022/10/04 05:04:03;;;;;;;15.17;13.53;;;11.30;99.90;;;;;;5036679;28;20517;-78
2022/10/04 05:06:33;;;;;;;15.23;13.73;;;11.30;99.90;;;;;;5036258;28;20920;-78
2022/10/04 05:09:02;;;;;;;14.90;13.40;;;11.30;99.90;;;;;;5036457;28;20817;-78
2022/10/04 05:11:34;;;;;;;15.83;14.50;;;11.30;99.90;;;;;;5036098;28;20454;-78
2022/10/04 05:14:05;;;;;;;16.90;13.97;;;11.20;99.90;;;;;;5035417;28;20482;-77
2022/10/04 05:16:40;;;;;;;17.43;15.33;;;11.20;99.90;;;;;;5035395;28;20834;-78
2022/10/04 05:19:13;;;;;;;15.67;14.20;;;11.20;99.90;;;;;;5036171;28;20881;-75
2022/10/04 05:21:46;;;;;;;16.40;14.90;;;11.20;99.90;;;;;;5034351;28;20450;-78
2022/10/04 05:24:23;;;;;;;15.23;13.70;;;11.20;99.90;;;;;;5034557;28;20463;-78
2022/10/04 05:26:56;;;;;;;17.33;14.87;;;11.20;99.90;;;;;;5035350;28;20809;-78
2022/10/04 05:29:27;;;;;;;16.20;14.20;;;11.20;99.90;;;;;;5037639;28;20874;-77
2022/10/04 05:32:09;;;;;;;15.73;14.03;;;11.20;99.90;;;;;;5036138;28;20451;-77
2022/10/04 05:34:40;;;;;;;15.87;14.33;;;11.20;99.90;;;;;;5034203;28;20554;-78
2022/10/04 05:37:39;;;;;;;14.90;13.53;;;11.10;99.90;;;;;;5035052;28;20521;-77
2022/10/04 05:40:23;;;;;;;15.60;14.10;;;11.10;99.90;;;;;;5037247;28;20419;-78
2022/10/04 05:42:54;;;;;;;15.90;14.30;;;11.10;99.90;;;;;;5037332;28;20439;-77
2022/10/04 05:45:26;;;;;;;16.97;15.33;;;11.10;99.90;;;;;;5036961;28;20538;-78
2022/10/04 05:48:00;;;;;;;16.33;14.90;;;11.10;99.90;;;;;;5039116;28;20822;-78
2022/10/04 05:50:33;;;;;;;17.70;15.90;;;11.10;99.90;;;;;;5038616;28;20924;-78
2022/10/04 05:53:21;;;;;;;17.70;15.93;;;11.10;99.90;;;;;;5036215;28;20454;-77
2022/10/04 05:55:58;;;;;;;18.13;16.57;;;11.10;99.90;;;;;;5035919;28;20431;-78
2022/10/04 05:58:57;;;;;;;18.37;16.57;;;11.10;99.90;;;;;;5035122;28;20454;-76
2022/10/04 06:01:36;;;;;;;19.03;17.37;;;11.10;99.90;;;;;;5031751;28;20522;-78
2022/10/04 06:04:24;;;;;;;19.17;17.17;;;11.10;99.90;;;;;;5033746;28;20466;-76
2022/10/04 06:06:57;;;;;;;19.40;17.50;;;11.10;99.90;;;;;;5033918;28;20781;-77
2022/10/04 06:09:47;;;;;;;18.60;16.70;;;11.10;99.90;;;;;;5032615;28;20431;-76
2022/10/04 06:12:28;;;;;;;20.27;18.37;;;11.10;99.90;;;;;;5033356;28;20439;-77
2022/10/04 06:15:23;;;;;;;21.53;18.20;;;11.10;99.90;;;;;;5033841;28;20470;-76
2022/10/04 06:18:06;;;;;;;18.83;17.17;;;11.10;99.90;;;;;;5031294;28;20467;-77
2022/10/04 06:20:58;;;;;;;20.70;18.53;;;11.10;99.90;;;;;;5034110;28;20860;-78
2022/10/04 06:23:28;;;;;;;19.60;17.53;;;11.10;99.90;;;;;;5033458;28;20451;-78
2022/10/04 06:26:00;;;;;;;21.00;18.90;;;11.10;99.90;;;;;;5033571;28;20537;-76
2022/10/04 06:28:31;;;;;;;21.47;18.23;;;11.10;99.90;;;;;;5033746;28;20435;-78
2022/10/04 06:31:32;;;;;;;20.30;18.67;;;11.10;99.90;;;;;;5033462;28;20793;-78
2022/10/04 06:34:28;;;;;;;20.13;18.40;;;11.10;99.90;;;;;;5033084;28;20550;-78
2022/10/04 06:37:19;;;;;;;20.33;18.50;;;11.20;99.90;;;;;;5034767;28;20459;-78
2022/10/04 06:40:16;;;;;;;20.17;18.27;;;11.20;99.90;;;;;;5030382;28;20470;-77
2022/10/04 06:42:58;;;;;;;21.37;19.20;;;11.20;99.90;;;;;;5032333;28;20538;-76
2022/10/04 06:45:36;;;;;;;22.40;19.10;;;11.20;99.90;;;;;;5032231;28;20498;-78
2022/10/04 06:48:24;;;;;;;21.03;18.90;;;11.20;99.90;;;;;;5035312;28;20423;-77
2022/10/04 06:51:03;;;;;;;19.37;17.70;;;11.30;99.90;;;;;;5032978;28;20490;-75
2022/10/04 06:53:43;;;;;;;20.97;18.30;;;11.30;99.90;;;;;;5036136;28;20529;-77
2022/10/04 06:56:34;;;;;;;21.30;19.40;;;11.30;99.90;;;;;;5038490;28;20446;-77
2022/10/04 06:59:23;;;;;;;22.33;18.40;;;11.30;99.90;;;;;;5040452;28;20466;-78
2022/10/04 07:01:57;;;;;;;20.27;18.20;;;11.30;99.90;;;;;;5041530;28;20462;-78
2022/10/04 07:04:35;;;;;;;20.33;18.30;;;11.40;99.90;;;;;;5039659;28;20569;-76
2022/10/04 07:07:36;;;;;;;19.83;17.87;;;11.40;99.90;;;;;;5039776;28;20936;-77
2022/10/04 07:10:32;;;;;;;18.70;17.00;;;11.40;99.90;;;;;;5038519;28;20815;-77
2022/10/04 07:13:13;;;;;;;20.83;17.83;;;11.50;99.90;;;;;;5022829;28;20879;-77
2022/10/04 07:15:48;;;;;;;21.37;19.07;;;11.50;99.90;;;;;;5038895;28;20443;-77
2022/10/04 07:18:23;;;;;;;19.90;18.00;;;11.50;99.90;;;;;;5039874;28;20454;-76
2022/10/04 07:21:01;;;;;;;19.93;17.83;;;11.60;99.90;;;;;;5041275;28;20446;-78
2022/10/04 07:23:33;;;;;;;19.30;17.30;;;11.60;99.90;;;;;;5040309;28;20470;-78
2022/10/04 07:26:06;;;;;;;21.10;18.90;;;11.70;99.90;;;;;;5042170;28;20419;-78
2022/10/04 07:31:29;;;;;;;19.27;17.33;;;11.80;99.90;;;;;;5039860;28;20497;-78
2022/10/04 07:34:01;;;;;;;17.57;16.00;;;11.90;99.90;;;;;;5039156;28;20538;-78
2022/10/04 07:36:41;;;;;;;18.57;16.67;;;11.90;99.90;;;;;;5041461;28;20429;-77
2022/10/04 07:39:15;;;;;;;19.33;15.70;;;12.00;99.90;;;;;;5041633;28;20463;-78
2022/10/04 07:41:51;;;;;;;18.57;16.57;;;12.00;99.90;;;;;;5043337;28;20513;-78
2022/10/04 07:44:30;;;;;;;16.37;14.93;;;12.20;99.90;;;;;;5041597;28;20474;-78
2022/10/04 07:47:02;;;;;;;16.37;14.63;;;12.20;99.90;;;;;;5039065;28;20951;-78
2022/10/04 07:49:38;;;;;;;16.00;13.93;;;12.30;99.90;;;;;;5038283;28;20795;-78
2022/10/04 07:52:31;;;;;;;15.37;13.10;;;12.30;99.90;;;;;;5039163;28;20802;-78
2022/10/04 07:55:12;;;;;;;15.00;13.20;;;12.40;99.90;;;;;;5043715;28;20490;-78
2022/10/04 07:57:50;;;;;;;14.90;13.03;;;12.50;99.90;;;;;;5042514;28;20429;-78
2022/10/04 08:00:21;;;;;;;16.77;13.23;;;12.60;99.90;;;;;;5039047;28;20477;-78
2022/10/04 08:03:11;;;;;;;14.47;12.50;;;12.70;99.90;;;;;;5039667;28;20427;-77
2022/10/04 08:05:43;;;;;;;19.20;13.90;;;12.80;99.90;;;;;;5034659;28;20431;-79
2022/10/04 08:08:28;;;;;;;14.50;12.23;;;12.90;99.90;;;;;;5035475;28;20779;-76
2022/10/04 08:11:15;;;;;;;13.67;12.10;;;13.00;99.90;;;;;;5036810;28;20533;-78
2022/10/04 08:14:00;;;;;;;13.20;11.90;;;13.10;99.90;;;;;;5036563;28;20455;-77
2022/10/04 08:16:36;;;;;;;13.00;11.23;;;13.30;99.90;;;;;;5037684;28;20455;-78
2022/10/04 08:19:41;;;;;;;14.20;11.33;;;13.40;99.90;;;;;;5036027;28;20469;-77
2022/10/04 08:22:22;;;;;;;14.80;10.30;;;13.40;99.90;;;;;;4959333;28;20445;-76
2022/10/04 08:25:01;;;;;;;14.63;13.00;;;13.50;99.90;;;;;;5028290;28;21003;-77
2022/10/04 08:30:43;;;;;;;11.10;9.93;;;13.50;99.90;;;;;;5034201;28;20465;-77
2022/10/04 08:33:24;;;;;;;11.03;10.03;;;13.50;99.90;;;;;;5037378;28;20506;-78
2022/10/04 08:36:03;;;;;;;16.67;10.03;;;13.50;99.90;;;;;;5034925;28;20924;-78
2022/10/04 08:38:43;;;;;;;11.30;10.07;;;13.50;99.90;;;;;;5037321;28;20926;-77
2022/10/04 08:41:45;;;;;;;13.00;10.43;;;13.60;99.90;;;;;;5036499;28;20427;-76
2022/10/04 08:44:45;;;;;;;12.67;10.80;;;13.80;99.90;;;;;;5036517;28;20521;-77
2022/10/04 08:47:58;;;;;;;12.97;9.87;;;13.90;99.90;;;;;;5012168;28;20948;-78
2022/10/04 08:50:54;;;;;;;12.97;11.37;;;14.00;99.90;;;;;;5016771;28;20457;-77
2022/10/04 08:53:42;;;;;;;11.63;9.10;;;14.20;99.90;;;;;;5035067;28;20443;-79
2022/10/04 08:56:18;;;;;;;13.40;8.70;;;14.20;99.90;;;;;;5036407;28;20458;-76
2022/10/04 08:59:16;;;;;;;11.87;8.73;;;14.30;99.90;;;;;;5037079;28;20422;-78
2022/10/04 09:02:15;;;;;;;9.00;8.10;;;14.40;99.90;;;;;;5036555;28;20511;-78
2022/10/04 09:05:23;;;;;;;8.87;7.97;;;14.40;99.90;;;;;;5035620;28;20471;-78
2022/10/04 09:08:27;;;;;;;9.83;8.70;;;14.50;99.90;;;;;;5034273;28;20554;-77
2022/10/04 09:11:19;;;;;;;13.07;9.30;;;14.60;99.90;;;;;;5018366;28;20501;-76
2022/10/04 09:14:06;;;;;;;11.63;9.40;;;14.70;99.90;;;;;;5023583;28;20462;-78
2022/10/04 09:16:45;;;;;;;9.53;8.30;;;14.80;99.90;;;;;;5035382;28;20419;-76
2022/10/04 09:19:22;;;;;;;14.47;9.30;;;14.90;99.90;;;;;;5034120;28;20466;-79
2022/10/04 09:22:10;;;;;;;10.37;8.43;;;14.90;99.90;;;;;;5036670;28;20443;-79
2022/10/04 09:25:12;;;;;;;14.80;8.70;;;15.00;99.90;;;;;;5033774;28;20985;-76
2022/10/04 09:28:00;;;;;;;10.43;8.40;;;15.10;99.90;;;;;;5016158;28;20450;-77
2022/10/04 09:30:46;;;;;;;11.30;8.47;;;15.10;99.90;;;;;;5034944;28;20455;-78
2022/10/04 09:33:34;;;;;;;12.40;6.83;;;15.20;99.90;;;;;;5035868;28;20427;-78
2022/10/04 09:36:33;;;;;;;11.50;7.63;;;15.30;99.90;;;;;;5034429;28;20442;-77
2022/10/04 09:39:39;;;;;;;9.87;7.17;;;15.30;99.90;;;;;;5026172;28;20459;-78
2022/10/04 09:42:32;;;;;;;13.13;9.07;;;15.40;99.90;;;;;;5027415;28;20557;-78
2022/10/04 09:45:34;;;;;;;16.17;7.57;;;15.40;99.90;;;;;;5036179;28;20458;-79
2022/10/04 09:48:25;;;;;;;11.00;7.20;;;15.50;99.90;;;;;;5034206;28;20454;-78
2022/10/04 09:51:27;;;;;;;9.10;7.40;;;15.60;99.90;;;;;;5029364;28;20840;-77
2022/10/04 09:54:11;;;;;;;8.97;7.20;;;15.60;99.90;;;;;;5032942;28;20462;-76
2022/10/04 09:57:18;;;;;;;8.23;7.27;;;15.70;99.90;;;;;;5034500;28;20420;-78
2022/10/04 10:00:05;;;;;;;7.43;6.30;;;15.70;99.90;;;;;;5033003;28;20478;-77
2022/10/04 10:03:10;;;;;;;8.50;7.30;;;15.80;99.90;;;;;;5035504;28;20781;-79
2022/10/04 10:06:10;;;;;;;10.63;6.57;;;15.80;99.90;;;;;;5034978;28;20980;-79
2022/10/04 10:08:48;;;;;;;8.97;7.60;;;15.90;99.90;;;;;;4992107;28;20553;-77
2022/10/04 10:14:31;;;;;;;10.30;8.30;;;16.00;99.90;;;;;;5032758;28;20475;-79
2022/10/04 10:17:07;;;;;;;10.77;8.37;;;16.00;99.90;;;;;;5033745;28;20454;-79
2022/10/04 10:20:02;;;;;;;12.17;8.33;;;16.10;99.90;;;;;;5035392;28;20462;-77
2022/10/04 10:23:03;;;;;;;11.67;7.57;;;16.10;99.90;;;;;;5035117;28;20754;-78
2022/10/04 10:25:47;;;;;;;9.43;8.27;;;16.20;99.90;;;;;;5034787;28;20471;-79
2022/10/04 10:28:43;;;;;;;9.50;7.00;;;16.20;99.90;;;;;;5035418;28;20419;-77
2022/10/04 10:31:30;;;;;;;8.53;6.90;;;16.20;99.90;;;;;;5035577;28;20455;-79
2022/10/04 10:34:21;;;;;;;9.83;6.20;;;16.30;99.90;;;;;;5035660;28;20888;-78
2022/10/04 10:37:04;;;;;;;8.43;6.00;;;16.30;99.90;;;;;;5034712;28;20446;-78
2022/10/04 10:39:56;;;;;;;11.40;6.87;;;16.40;99.90;;;;;;5033897;28;20517;-78
2022/10/04 10:42:53;;;;;;;11.00;7.73;;;16.40;99.90;;;;;;5034194;28;20462;-79
2022/10/04 10:45:49;;;;;;;8.33;6.43;;;16.50;99.90;;;;;;5032948;28;20438;-78
2022/10/04 10:48:35;;;;;;;8.63;7.03;;;16.50;99.90;;;;;;5033723;28;20498;-77
2022/10/04 10:51:10;;;;;;;14.70;8.50;;;16.60;99.90;;;;;;5032410;28;20442;-76
2022/10/04 10:54:32;;;;;;;7.83;6.97;;;16.60;99.90;;;;;;5032308;28;20481;-77
2022/10/04 10:57:12;;;;;;;8.70;6.70;;;16.60;99.90;;;;;;5019410;28;20536;-78
2022/10/04 11:00:17;;;;;;;8.73;7.83;;;16.70;99.90;;;;;;5038385;28;20482;-79
2022/10/04 11:03:30;;;;;;;10.27;7.10;;;16.80;99.90;;;;;;5035933;28;20404;-79
2022/10/04 11:06:16;;;;;;;8.00;7.00;;;16.80;99.90;;;;;;5000641;28;20530;-77
2022/10/04 11:09:23;;;;;;;9.80;7.77;;;16.90;99.90;;;;;;5034341;28;20502;-77
2022/10/04 11:12:21;;;;;;;11.20;8.33;;;16.90;99.90;;;;;;5038628;28;20414;-79
2022/10/04 11:15:29;;;;;;;8.33;6.67;;;17.00;99.90;;;;;;5037314;28;20471;-78
2022/10/04 11:18:23;;;;;;;8.80;7.70;;;17.00;99.90;;;;;;5036897;28;20425;-78
2022/10/04 11:21:26;;;;;;;10.30;7.10;;;17.10;99.90;;;;;;5032704;28;20442;-77
2022/10/04 11:24:29;;;;;;;7.77;6.20;;;17.20;99.90;;;;;;5036584;28;20440;-77
2022/10/04 11:27:12;;;;;;;8.50;5.80;;;17.20;99.90;;;;;;5032018;28;20520;-77
2022/10/04 11:30:02;;;;;;;12.83;6.13;;;17.30;99.90;;;;;;5033886;28;20414;-78
2022/10/04 11:33:01;;;;;;;8.17;5.60;;;17.30;99.90;;;;;;5033391;28;20938;-77
2022/10/04 11:35:54;;;;;;;8.90;6.50;;;17.30;99.90;;;;;;5035330;28;20494;-77
2022/10/04 11:38:35;;;;;;;7.67;6.03;;;17.30;99.90;;;;;;5033662;28;20406;-77
2022/10/04 11:41:15;;;;;;;7.93;5.30;;;17.30;99.90;;;;;;5035517;28;20464;-76
2022/10/04 11:44:17;;;;;;;6.60;5.30;;;17.40;99.90;;;;;;5037327;28;20477;-78
2022/10/04 11:46:53;;;;;;;11.30;6.40;;;17.40;99.90;;;;;;5041502;28;20401;-80
2022/10/04 11:49:47;;;;;;;7.13;4.70;;;17.50;99.90;;;;;;5038066;28;20481;-79
2022/10/04 11:53:02;;;;;;;7.40;4.87;;;17.50;99.90;;;;;;5037896;28;20443;-78
2022/10/04 11:55:52;;;;;;;6.20;4.90;;;17.50;99.90;;;;;;5037418;28;20984;-78
2022/10/04 11:58:31;;;;;;;6.47;5.00;;;17.20;99.90;;;;;;5039977;28;20568;-79
2022/10/04 12:01:39;;;;;;;6.93;4.07;;;17.60;99.90;;;;;;5038420;28;20457;-77
2022/10/04 12:04:26;;;;;;;7.73;4.43;;;17.60;99.90;;;;;;5036843;28;20561;-76
2022/10/04 12:07:12;;;;;;;10.10;4.80;;;17.70;99.90;;;;;;5035787;28;20417;-75
2022/10/04 12:09:49;;;;;;;10.00;4.73;;;17.70;99.90;;;;;;5036971;28;20447;-78
2022/10/04 12:12:37;;;;;;;8.17;4.80;;;17.70;99.90;;;;;;5037220;28;20409;-79
2022/10/04 12:15:37;;;;;;;7.73;4.63;;;17.80;99.90;;;;;;5037629;28;20498;-78
2022/10/04 12:18:27;;;;;;;7.10;5.43;;;17.80;99.90;;;;;;5012397;28;20418;-79
2022/10/04 12:21:18;;;;;;;9.90;7.30;;;17.90;99.90;;;;;;5039303;28;20437;-80
2022/10/04 12:23:59;;;;;;;8.20;5.00;;;17.90;99.90;;;;;;5038145;28;20488;-80
2022/10/04 12:27:17;;;;;;;7.70;4.57;;;18.00;99.90;;;;;;5038895;28;20412;-77
2022/10/04 12:30:21;;;;;;;5.90;3.87;;;18.00;99.90;;;;;;5036384;28;20393;-76
2022/10/04 12:33:02;;;;;;;9.37;4.90;;;18.10;99.90;;;;;;5035793;28;20433;-78
2022/10/04 12:35:43;;;;;;;6.60;4.90;;;18.10;99.90;;;;;;5038283;28;20947;-77
2022/10/04 12:38:49;;;;;;;6.63;4.37;;;18.20;99.90;;;;;;5035883;28;20504;-78
2022/10/04 12:41:31;;;;;;;7.57;4.57;;;18.20;99.90;;;;;;5037570;28;20437;-78
2022/10/04 12:44:16;;;;;;;6.20;4.47;;;18.30;99.90;;;;;;5036269;28;20452;-77
2022/10/04 12:47:00;;;;;;;10.33;6.50;;;18.30;99.90;;;;;;5036617;28;20420;-77
2022/10/04 12:49:40;;;;;;;8.03;4.90;;;18.30;99.90;;;;;;5036117;28;20447;-78
2022/10/04 12:52:15;;;;;;;13.67;5.40;;;18.40;99.90;;;;;;5035236;28;20449;-77
2022/10/04 12:54:46;;;;;;;7.83;5.20;;;18.40;99.90;;;;;;5036019;28;20511;-75
2022/10/04 12:57:32;;;;;;;8.27;4.53;;;18.40;99.90;;;;;;5034895;28;20418;-78
2022/10/04 13:00:14;;;;;;;8.60;5.40;;;18.50;99.90;;;;;;5035017;28;20471;-77
2022/10/04 13:03:02;;;;;;;8.40;5.07;;;18.50;99.90;;;;;;5034782;28;20438;-78
2022/10/04 13:05:36;;;;;;;8.00;5.90;;;18.50;99.90;;;;;;5037056;28;20995;-78
2022/10/04 13:08:22;;;;;;;7.20;5.00;;;18.60;99.90;;;;;;5037437;28;20436;-78
2022/10/04 13:11:19;;;;;;;8.63;4.80;;;18.60;99.90;;;;;;5038530;28;20447;-80
2022/10/04 13:14:15;;;;;;;6.40;4.90;;;18.60;99.90;;;;;;5038627;28;20459;-81
2022/10/04 13:16:53;;;;;;;9.13;4.50;;;18.70;99.90;;;;;;5038949;28;20419;-79
2022/10/04 13:19:51;;;;;;;6.20;4.30;;;18.70;99.90;;;;;;5036984;28;20455;-80
2022/10/04 13:22:31;;;;;;;6.23;3.90;;;18.70;99.90;;;;;;5037533;28;20454;-80
2022/10/04 13:25:44;;;;;;;7.00;4.10;;;18.80;99.90;;;;;;5038871;28;20474;-79
2022/10/04 13:28:22;;;;;;;7.27;4.23;;;18.80;99.90;;;;;;5036635;28;20427;-78
2022/10/04 13:31:00;;;;;;;10.67;4.43;;;18.80;99.90;;;;;;5035176;28;20452;-79
2022/10/04 13:33:37;;;;;;;7.20;4.40;;;18.90;99.90;;;;;;5034591;28;20439;-77
2022/10/04 13:36:11;;;;;;;6.77;4.43;;;18.90;99.90;;;;;;5036044;28;20423;-78
2022/10/04 13:39:13;;;;;;;6.13;4.17;;;18.90;99.90;;;;;;5035740;28;20423;-77
2022/10/04 13:41:55;;;;;;;10.63;4.37;;;18.90;99.90;;;;;;5035532;28;20455;-76
2022/10/04 13:44:57;;;;;;;7.53;4.70;;;19.00;99.90;;;;;;5034852;28;21018;-76
2022/10/04 13:47:42;;;;;;;8.43;3.27;;;19.00;99.90;;;;;;5035323;28;20919;-77
2022/10/04 13:50:33;;;;;;;9.80;5.00;;;19.00;99.90;;;;;;5034399;28;20455;-77
2022/10/04 13:59:02;;;;;;;8.97;4.33;;;19.10;99.90;;;;;;5033879;28;20443;-78
2022/10/04 14:01:54;;;;;;;6.90;4.57;;;19.10;99.90;;;;;;5039342;28;20525;-79
2022/10/04 14:04:53;;;;;;;7.20;4.67;;;19.10;99.90;;;;;;5033705;28;20463;-78
2022/10/04 14:07:50;;;;;;;7.20;3.87;;;19.10;99.90;;;;;;5035145;28;20423;-78
2022/10/04 14:10:46;;;;;;;7.80;4.27;;;19.10;99.90;;;;;;5033523;28;20909;-77